Aviation Digital Data Service (ADDS)

Output produced by METARs form (1714 UTC 24 June 2019)
found at http://www.aviationweather.gov/metar/data/
 
Forecast for: FACT (CAPETOWN/DF MALA, ZA)
Text: TAF FACT 241600Z 2418/2524 17016KT 9999 FEW035 TX18/2512Z TN10/2506Z
Forecast period: 1800 UTC 24 June 2019 to 0800 UTC 25 June 2019
Forecast type: FROM: standard forecast or significant change
Winds: from the S (170 degrees) at 18 MPH (16 knots; 8.2 m/s)
Visibility: 6 or more miles 10+ km)
Ceiling: at least 12,000 feet AGL
Clouds: few clouds at 3500 feet AGL
Weather: no significant weather forecast for this period
Text: FM250800 15012KT CAVOK
Forecast period: 0800 to 2000 UTC 25 June 2019
Forecast type: FROM: standard forecast or significant change
Winds: from the SSE (150 degrees) at 14 MPH (12 knots; 6.2 m/s)
Visibility: 6 or more miles 10+ km)
Ceiling: unknown
Clouds: missing
Weather: NSW  (no significant weather)
Text: BECMG 2520/2522 22010KT
Forecast period: 2000 UTC 25 June 2019 to 0000 UTC 26 June 2019
Forecast type: BECOMING: Conditions expected to become as follows by 2200 UTC 25 June 2019
Winds: from the SW (220 degrees) at 12 MPH (10 knots; 5.1 m/s)
Visibility: 6 or more miles 10+ km)
Ceiling: unknown
Clouds: missing
Weather: NSW  (no significant weather)